sensor_id;sensor_type;location;lat;lon;timestamp;pressure;altitude;pressure_sealevel;temperature;humidity
63405;BME280;49541;57.840;12.306;2022-08-21T00:00:29;100543.00;;;15.21;71.67
63405;BME280;49541;57.840;12.306;2022-08-21T00:05:31;100546.06;;;14.75;73.56
63405;BME280;49541;57.840;12.306;2022-08-21T00:10:32;100535.34;;;14.49;74.72
63405;BME280;49541;57.840;12.306;2022-08-21T00:15:33;100543.97;;;14.34;75.93
63405;BME280;49541;57.840;12.306;2022-08-21T00:20:34;100540.66;;;14.59;73.52
63405;BME280;49541;57.840;12.306;2022-08-21T00:25:34;100539.88;;;14.48;73.47
63405;BME280;49541;57.840;12.306;2022-08-21T00:30:35;100540.59;;;14.24;73.85
63405;BME280;49541;57.840;12.306;2022-08-21T00:35:36;100538.16;;;13.87;75.65
63405;BME280;49541;57.840;12.306;2022-08-21T00:40:40;100533.75;;;14.04;74.81
63405;BME280;49541;57.840;12.306;2022-08-21T00:45:41;100542.38;;;14.42;73.33
63405;BME280;49541;57.840;12.306;2022-08-21T00:50:46;100536.22;;;13.97;74.13
63405;BME280;49541;57.840;12.306;2022-08-21T00:55:48;100530.69;;;13.72;76.23
63405;BME280;49541;57.840;12.306;2022-08-21T01:00:49;100520.22;;;13.61;76.13
63405;BME280;49541;57.840;12.306;2022-08-21T01:05:50;100523.84;;;13.34;77.71
63405;BME280;49541;57.840;12.306;2022-08-21T01:10:52;100531.75;;;14.32;73.33
63405;BME280;49541;57.840;12.306;2022-08-21T01:15:54;100527.41;;;13.61;75.90
63405;BME280;49541;57.840;12.306;2022-08-21T01:21:11;100532.19;;;13.93;73.66
63405;BME280;49541;57.840;12.306;2022-08-21T01:26:13;100539.16;;;13.68;74.97
63405;BME280;49541;57.840;12.306;2022-08-21T01:31:14;100530.69;;;13.37;75.56
63405;BME280;49541;57.840;12.306;2022-08-21T01:36:14;100526.97;;;13.91;73.45
63405;BME280;49541;57.840;12.306;2022-08-21T01:41:15;100532.50;;;13.72;73.92
63405;BME280;49541;57.840;12.306;2022-08-21T01:46:15;100527.28;;;13.88;74.13
63405;BME280;49541;57.840;12.306;2022-08-21T01:51:15;100531.28;;;13.84;74.53
63405;BME280;49541;57.840;12.306;2022-08-21T01:56:16;100528.09;;;13.63;75.81
63405;BME280;49541;57.840;12.306;2022-08-21T02:01:16;100533.78;;;13.14;77.37
63405;BME280;49541;57.840;12.306;2022-08-21T02:06:16;100512.59;;;12.85;80.30
63405;BME280;49541;57.840;12.306;2022-08-21T02:11:18;100515.34;;;13.39;78.15
63405;BME280;49541;57.840;12.306;2022-08-21T02:16:18;100506.34;;;13.58;77.14
63405;BME280;49541;57.840;12.306;2022-08-21T02:21:18;100510.63;;;12.87;80.39
63405;BME280;49541;57.840;12.306;2022-08-21T02:26:18;100512.53;;;13.84;75.03
63405;BME280;49541;57.840;12.306;2022-08-21T02:31:19;100507.38;;;13.11;77.22
63405;BME280;49541;57.840;12.306;2022-08-21T02:36:19;100500.72;;;13.69;74.03
63405;BME280;49541;57.840;12.306;2022-08-21T02:41:20;100506.00;;;14.05;70.41
63405;BME280;49541;57.840;12.306;2022-08-21T02:46:20;100508.84;;;13.41;73.13
63405;BME280;49541;57.840;12.306;2022-08-21T02:51:21;100503.81;;;13.56;72.01
63405;BME280;49541;57.840;12.306;2022-08-21T02:56:22;100503.16;;;13.08;73.20
63405;BME280;49541;57.840;12.306;2022-08-21T03:01:23;100494.81;;;12.76;73.90
63405;BME280;49541;57.840;12.306;2022-08-21T03:06:23;100505.38;;;12.95;74.05
63405;BME280;49541;57.840;12.306;2022-08-21T03:11:24;100501.88;;;12.29;76.16
63405;BME280;49541;57.840;12.306;2022-08-21T03:16:25;100494.41;;;11.96;78.51
63405;BME280;49541;57.840;12.306;2022-08-21T03:21:25;100483.69;;;12.98;72.85
63405;BME280;49541;57.840;12.306;2022-08-21T03:26:26;100484.81;;;12.96;72.67
63405;BME280;49541;57.840;12.306;2022-08-21T03:31:26;100484.50;;;12.99;73.03
63405;BME280;49541;57.840;12.306;2022-08-21T03:36:30;100478.94;;;11.99;76.59
63405;BME280;49541;57.840;12.306;2022-08-21T03:41:30;100473.56;;;12.19;76.88
63405;BME280;49541;57.840;12.306;2022-08-21T03:46:31;100474.13;;;12.22;76.63
63405;BME280;49541;57.840;12.306;2022-08-21T03:51:31;100469.94;;;12.10;77.38
63405;BME280;49541;57.840;12.306;2022-08-21T03:56:32;100474.50;;;11.90;76.63
63405;BME280;49541;57.840;12.306;2022-08-21T04:01:32;100474.19;;;11.83;76.34
63405;BME280;49541;57.840;12.306;2022-08-21T04:06:33;100465.03;;;12.05;75.65
63405;BME280;49541;57.840;12.306;2022-08-21T04:11:33;100467.47;;;11.79;76.15
63405;BME280;49541;57.840;12.306;2022-08-21T04:16:33;100474.63;;;11.98;75.22
63405;BME280;49541;57.840;12.306;2022-08-21T04:21:35;100472.91;;;12.07;74.48
63405;BME280;49541;57.840;12.306;2022-08-21T04:26:36;100484.72;;;11.95;74.39
63405;BME280;49541;57.840;12.306;2022-08-21T04:31:36;100481.03;;;12.05;74.66
63405;BME280;49541;57.840;12.306;2022-08-21T04:36:37;100497.28;;;12.59;73.67
63405;BME280;49541;57.840;12.306;2022-08-21T04:41:37;100492.41;;;12.73;73.45
63405;BME280;49541;57.840;12.306;2022-08-21T04:46:37;100491.59;;;12.90;74.35
63405;BME280;49541;57.840;12.306;2022-08-21T04:51:37;100489.13;;;13.06;73.83
63405;BME280;49541;57.840;12.306;2022-08-21T04:56:39;100485.84;;;12.67;74.67
63405;BME280;49541;57.840;12.306;2022-08-21T05:01:41;100490.16;;;12.78;75.22
63405;BME280;49541;57.840;12.306;2022-08-21T05:06:44;100493.06;;;13.02;75.22
63405;BME280;49541;57.840;12.306;2022-08-21T05:11:46;100498.06;;;13.69;77.08
63405;BME280;49541;57.840;12.306;2022-08-21T05:16:48;100504.38;;;14.12;76.81
63405;BME280;49541;57.840;12.306;2022-08-21T05:21:48;100492.03;;;13.93;77.77
63405;BME280;49541;57.840;12.306;2022-08-21T05:26:49;100486.31;;;13.62;80.01
63405;BME280;49541;57.840;12.306;2022-08-21T05:31:49;100485.31;;;13.45;81.06
63405;BME280;49541;57.840;12.306;2022-08-21T05:36:49;100489.75;;;13.98;80.88
63405;BME280;49541;57.840;12.306;2022-08-21T05:41:49;100498.00;;;14.82;81.28
63405;BME280;49541;57.840;12.306;2022-08-21T05:46:50;100494.06;;;15.02;80.47
63405;BME280;49541;57.840;12.306;2022-08-21T05:51:50;100491.44;;;15.60;79.40
63405;BME280;49541;57.840;12.306;2022-08-21T05:56:50;100500.75;;;16.21;76.46
63405;BME280;49541;57.840;12.306;2022-08-21T06:01:51;100497.47;;;16.98;74.43
63405;BME280;49541;57.840;12.306;2022-08-21T06:06:52;100499.78;;;17.01;74.74
63405;BME280;49541;57.840;12.306;2022-08-21T06:11:52;100496.09;;;17.02;74.99
63405;BME280;49541;57.840;12.306;2022-08-21T06:16:53;100494.72;;;17.29;74.73
63405;BME280;49541;57.840;12.306;2022-08-21T06:21:53;100490.19;;;17.07;76.69
63405;BME280;49541;57.840;12.306;2022-08-21T06:26:53;100495.94;;;17.50;75.13
63405;BME280;49541;57.840;12.306;2022-08-21T06:31:53;100502.75;;;17.84;73.95
63405;BME280;49541;57.840;12.306;2022-08-21T06:36:54;100491.34;;;17.73;73.93
63405;BME280;49541;57.840;12.306;2022-08-21T06:41:54;100489.19;;;18.07;73.01
63405;BME280;49541;57.840;12.306;2022-08-21T06:46:55;100491.16;;;18.13;73.42
63405;BME280;49541;57.840;12.306;2022-08-21T06:51:55;100502.59;;;18.45;70.96
63405;BME280;49541;57.840;12.306;2022-08-21T06:56:55;100496.63;;;18.49;70.79
63405;BME280;49541;57.840;12.306;2022-08-21T07:01:55;100493.00;;;18.87;69.80
63405;BME280;49541;57.840;12.306;2022-08-21T07:06:55;100486.56;;;18.88;70.03
63405;BME280;49541;57.840;12.306;2022-08-21T07:11:56;100488.06;;;19.12;68.80
63405;BME280;49541;57.840;12.306;2022-08-21T07:16:56;100481.28;;;19.16;68.61
63405;BME280;49541;57.840;12.306;2022-08-21T07:21:58;100472.00;;;19.03;69.87
63405;BME280;49541;57.840;12.306;2022-08-21T07:27:00;100476.22;;;19.49;67.50
63405;BME280;49541;57.840;12.306;2022-08-21T07:32:00;100476.69;;;19.59;66.96
63405;BME280;49541;57.840;12.306;2022-08-21T07:37:00;100469.53;;;19.95;66.01
63405;BME280;49541;57.840;12.306;2022-08-21T07:42:00;100471.78;;;19.91;65.75
63405;BME280;49541;57.840;12.306;2022-08-21T07:47:01;100468.69;;;20.29;64.81
63405;BME280;49541;57.840;12.306;2022-08-21T07:52:01;100467.59;;;20.17;64.63
63405;BME280;49541;57.840;12.306;2022-08-21T07:57:01;100451.59;;;19.87;66.22
63405;BME280;49541;57.840;12.306;2022-08-21T08:02:02;100449.41;;;20.45;64.65
63405;BME280;49541;57.840;12.306;2022-08-21T08:07:02;100448.84;;;21.18;63.22
63405;BME280;49541;57.840;12.306;2022-08-21T08:12:03;100454.50;;;21.23;61.29
63405;BME280;49541;57.840;12.306;2022-08-21T08:17:04;100450.56;;;21.59;59.17
63405;BME280;49541;57.840;12.306;2022-08-21T08:22:14;100442.03;;;21.62;57.36
63405;BME280;49541;57.840;12.306;2022-08-21T08:27:15;100447.63;;;21.34;60.50
63405;BME280;49541;57.840;12.306;2022-08-21T08:32:16;100444.69;;;20.54;62.35
63405;BME280;49541;57.840;12.306;2022-08-21T08:37:16;100444.75;;;19.91;64.61
63405;BME280;49541;57.840;12.306;2022-08-21T08:47:19;100435.75;;;19.28;67.42
63405;BME280;49541;57.840;12.306;2022-08-21T08:53:05;100433.53;;;19.38;67.86
63405;BME280;49541;57.840;12.306;2022-08-21T08:57:44;100425.00;;;19.84;66.14
63405;BME280;49541;57.840;12.306;2022-08-21T09:02:45;100434.50;;;20.15;60.34
63405;BME280;49541;57.840;12.306;2022-08-21T09:13:11;100420.47;;;20.88;49.70
63405;BME280;49541;57.840;12.306;2022-08-21T09:23:49;100418.88;;;21.13;50.42
63405;BME280;49541;57.840;12.306;2022-08-21T09:28:56;100413.47;;;21.46;48.83
63405;BME280;49541;57.840;12.306;2022-08-21T09:33:58;100415.94;;;21.08;49.32
63405;BME280;49541;57.840;12.306;2022-08-21T09:38:58;100416.69;;;20.75;50.88
63405;BME280;49541;57.840;12.306;2022-08-21T09:43:59;100414.63;;;20.77;53.17
63405;BME280;49541;57.840;12.306;2022-08-21T09:49:00;100412.63;;;21.59;50.62
63405;BME280;49541;57.840;12.306;2022-08-21T09:59:14;100401.56;;;22.91;47.70
63405;BME280;49541;57.840;12.306;2022-08-21T10:04:18;100416.31;;;22.12;46.94
63405;BME280;49541;57.840;12.306;2022-08-21T10:09:20;100405.06;;;22.08;48.74
63405;BME280;49541;57.840;12.306;2022-08-21T10:14:32;100408.34;;;22.30;46.90
63405;BME280;49541;57.840;12.306;2022-08-21T10:19:45;100392.75;;;22.64;47.58
63405;BME280;49541;57.840;12.306;2022-08-21T10:30:19;100394.97;;;23.12;46.49
63405;BME280;49541;57.840;12.306;2022-08-21T10:35:31;100381.13;;;23.20;45.21
63405;BME280;49541;57.840;12.306;2022-08-21T10:45:52;100378.22;;;23.65;45.35
63405;BME280;49541;57.840;12.306;2022-08-21T10:51:03;100382.63;;;24.22;42.07
63405;BME280;49541;57.840;12.306;2022-08-21T10:56:16;100381.91;;;24.93;41.68
63405;BME280;49541;57.840;12.306;2022-08-21T11:01:19;100390.19;;;24.99;41.19
63405;BME280;49541;57.840;12.306;2022-08-21T11:06:24;100395.97;;;25.32;40.58
63405;BME280;49541;57.840;12.306;2022-08-21T11:16:37;100397.59;;;24.31;43.73
63405;BME280;49541;57.840;12.306;2022-08-21T11:21:45;100382.50;;;24.35;43.96
63405;BME280;49541;57.840;12.306;2022-08-21T11:37:23;100393.16;;;24.00;43.44
63405;BME280;49541;57.840;12.306;2022-08-21T11:47:49;100390.53;;;25.44;40.99
63405;BME280;49541;57.840;12.306;2022-08-21T11:53:14;100381.88;;;25.36;41.98
63405;BME280;49541;57.840;12.306;2022-08-21T11:58:17;100387.75;;;25.09;41.88
63405;BME280;49541;57.840;12.306;2022-08-21T12:03:25;100389.31;;;26.11;40.58
63405;BME280;49541;57.840;12.306;2022-08-21T12:08:33;100392.25;;;26.90;38.33
63405;BME280;49541;57.840;12.306;2022-08-21T12:13:36;100391.19;;;26.63;38.50
63405;BME280;49541;57.840;12.306;2022-08-21T12:18:36;100393.00;;;27.70;37.31
63405;BME280;49541;57.840;12.306;2022-08-21T12:34:15;100389.03;;;25.06;41.59
63405;BME280;49541;57.840;12.306;2022-08-21T12:39:19;100384.25;;;24.41;41.34
63405;BME280;49541;57.840;12.306;2022-08-21T12:44:22;100391.16;;;25.04;40.44
63405;BME280;49541;57.840;12.306;2022-08-21T12:49:39;100381.09;;;24.44;42.55
63405;BME280;49541;57.840;12.306;2022-08-21T12:54:44;100393.03;;;24.62;42.43
63405;BME280;49541;57.840;12.306;2022-08-21T12:59:44;100390.72;;;25.19;41.90
63405;BME280;49541;57.840;12.306;2022-08-21T13:04:44;100385.59;;;24.69;42.17
63405;BME280;49541;57.840;12.306;2022-08-21T13:09:53;100388.00;;;23.91;44.55
63405;BME280;49541;57.840;12.306;2022-08-21T13:14:56;100380.00;;;23.53;46.75
63405;BME280;49541;57.840;12.306;2022-08-21T13:20:02;100375.88;;;23.94;46.77
63405;BME280;49541;57.840;12.306;2022-08-21T13:25:08;100365.44;;;23.91;47.68
63405;BME280;49541;57.840;12.306;2022-08-21T13:30:19;100376.16;;;24.04;47.99
63405;BME280;49541;57.840;12.306;2022-08-21T13:35:21;100366.06;;;23.68;48.88
63405;BME280;49541;57.840;12.306;2022-08-21T13:40:45;100367.94;;;23.67;49.58
63405;BME280;49541;57.840;12.306;2022-08-21T13:45:43;100359.84;;;23.17;51.27
63405;BME280;49541;57.840;12.306;2022-08-21T13:50:44;100358.41;;;24.20;49.79
63405;BME280;49541;57.840;12.306;2022-08-21T13:55:45;100352.25;;;24.73;49.25
63405;BME280;49541;57.840;12.306;2022-08-21T14:00:46;100352.41;;;24.90;49.50
63405;BME280;49541;57.840;12.306;2022-08-21T14:05:48;100354.53;;;24.28;50.61
63405;BME280;49541;57.840;12.306;2022-08-21T14:10:49;100350.28;;;23.58;52.72
63405;BME280;49541;57.840;12.306;2022-08-21T14:15:54;100355.34;;;22.73;55.42
63405;BME280;49541;57.840;12.306;2022-08-21T14:21:05;100339.00;;;22.47;56.59
63405;BME280;49541;57.840;12.306;2022-08-21T14:26:06;100344.38;;;22.61;54.48
63405;BME280;49541;57.840;12.306;2022-08-21T14:31:17;100332.88;;;22.90;54.45
63405;BME280;49541;57.840;12.306;2022-08-21T14:36:17;100316.16;;;23.00;53.98
63405;BME280;49541;57.840;12.306;2022-08-21T14:41:19;100317.38;;;23.04;55.46
63405;BME280;49541;57.840;12.306;2022-08-21T14:46:25;100328.38;;;22.78;54.98
63405;BME280;49541;57.840;12.306;2022-08-21T14:51:26;100322.03;;;22.20;57.18
63405;BME280;49541;57.840;12.306;2022-08-21T14:56:26;100332.00;;;22.97;56.02
63405;BME280;49541;57.840;12.306;2022-08-21T15:01:27;100333.25;;;23.26;55.31
63405;BME280;49541;57.840;12.306;2022-08-21T15:06:27;100330.56;;;22.62;58.08
63405;BME280;49541;57.840;12.306;2022-08-21T15:11:27;100345.50;;;22.78;56.73
63405;BME280;49541;57.840;12.306;2022-08-21T15:16:28;100338.09;;;24.04;54.11
63405;BME280;49541;57.840;12.306;2022-08-21T15:21:28;100351.63;;;22.67;53.93
63405;BME280;49541;57.840;12.306;2022-08-21T15:26:29;100343.19;;;22.43;55.19
63405;BME280;49541;57.840;12.306;2022-08-21T15:31:29;100347.69;;;22.63;55.45
63405;BME280;49541;57.840;12.306;2022-08-21T15:36:29;100349.34;;;22.64;55.79
63405;BME280;49541;57.840;12.306;2022-08-21T15:41:29;100340.03;;;22.53;56.71
63405;BME280;49541;57.840;12.306;2022-08-21T15:46:30;100341.84;;;22.21;56.95
63405;BME280;49541;57.840;12.306;2022-08-21T15:51:31;100333.31;;;21.45;58.60
63405;BME280;49541;57.840;12.306;2022-08-21T15:56:35;100334.84;;;21.93;58.16
63405;BME280;49541;57.840;12.306;2022-08-21T16:01:36;100328.91;;;21.64;58.60
63405;BME280;49541;57.840;12.306;2022-08-21T16:06:36;100330.16;;;21.62;59.79
63405;BME280;49541;57.840;12.306;2022-08-21T16:11:36;100339.34;;;21.21;60.35
63405;BME280;49541;57.840;12.306;2022-08-21T16:16:38;100329.13;;;20.83;61.79
63405;BME280;49541;57.840;12.306;2022-08-21T16:21:38;100319.50;;;20.60;61.69
63405;BME280;49541;57.840;12.306;2022-08-21T16:26:38;100332.56;;;20.43;61.31
63405;BME280;49541;57.840;12.306;2022-08-21T16:31:38;100344.44;;;20.56;61.70
63405;BME280;49541;57.840;12.306;2022-08-21T16:36:39;100347.91;;;20.36;61.72
63405;BME280;49541;57.840;12.306;2022-08-21T16:41:39;100356.94;;;20.09;63.60
63405;BME280;49541;57.840;12.306;2022-08-21T16:46:39;100359.78;;;20.35;63.58
63405;BME280;49541;57.840;12.306;2022-08-21T16:51:40;100357.69;;;20.31;64.51
63405;BME280;49541;57.840;12.306;2022-08-21T16:56:40;100367.94;;;20.49;64.38
63405;BME280;49541;57.840;12.306;2022-08-21T17:01:40;100354.72;;;20.80;64.31
63405;BME280;49541;57.840;12.306;2022-08-21T17:06:41;100376.16;;;20.89;64.08
63405;BME280;49541;57.840;12.306;2022-08-21T17:11:43;100370.94;;;20.74;64.51
63405;BME280;49541;57.840;12.306;2022-08-21T17:16:46;100365.81;;;20.37;64.31
63405;BME280;49541;57.840;12.306;2022-08-21T17:21:47;100378.06;;;20.33;65.21
63405;BME280;49541;57.840;12.306;2022-08-21T17:26:48;100390.69;;;20.26;64.11
63405;BME280;49541;57.840;12.306;2022-08-21T17:31:48;100395.41;;;20.52;62.67
63405;BME280;49541;57.840;12.306;2022-08-21T17:36:48;100392.66;;;20.45;63.40
63405;BME280;49541;57.840;12.306;2022-08-21T17:41:48;100401.94;;;20.23;63.15
63405;BME280;49541;57.840;12.306;2022-08-21T17:46:49;100399.66;;;19.92;63.14
63405;BME280;49541;57.840;12.306;2022-08-21T17:51:49;100400.09;;;19.89;63.69
63405;BME280;49541;57.840;12.306;2022-08-21T17:56:49;100408.63;;;19.64;63.55
63405;BME280;49541;57.840;12.306;2022-08-21T18:01:51;100416.50;;;19.65;63.56
63405;BME280;49541;57.840;12.306;2022-08-21T18:06:51;100414.94;;;19.71;63.66
63405;BME280;49541;57.840;12.306;2022-08-21T18:11:51;100424.59;;;19.65;63.51
63405;BME280;49541;57.840;12.306;2022-08-21T18:16:52;100419.13;;;19.52;63.79
63405;BME280;49541;57.840;12.306;2022-08-21T18:21:52;100423.81;;;19.43;64.44
63405;BME280;49541;57.840;12.306;2022-08-21T18:26:53;100425.19;;;19.33;64.49
63405;BME280;49541;57.840;12.306;2022-08-21T18:31:53;100427.44;;;19.29;64.86
63405;BME280;49541;57.840;12.306;2022-08-21T18:36:53;100439.97;;;18.94;68.49
63405;BME280;49541;57.840;12.306;2022-08-21T18:41:54;100446.91;;;18.52;72.05
63405;BME280;49541;57.840;12.306;2022-08-21T18:46:56;100462.34;;;18.28;75.16
63405;BME280;49541;57.840;12.306;2022-08-21T18:51:56;100459.28;;;17.87;75.65
63405;BME280;49541;57.840;12.306;2022-08-21T18:56:57;100460.22;;;18.09;77.59
63405;BME280;49541;57.840;12.306;2022-08-21T19:01:57;100459.38;;;18.53;77.27
63405;BME280;49541;57.840;12.306;2022-08-21T19:06:57;100462.25;;;18.51;74.62
63405;BME280;49541;57.840;12.306;2022-08-21T19:11:58;100453.59;;;18.56;75.51
63405;BME280;49541;57.840;12.306;2022-08-21T19:16:58;100467.00;;;18.49;76.56
63405;BME280;49541;57.840;12.306;2022-08-21T19:21:58;100473.84;;;18.81;75.78
63405;BME280;49541;57.840;12.306;2022-08-21T19:26:58;100479.22;;;18.67;75.93
63405;BME280;49541;57.840;12.306;2022-08-21T19:31:59;100485.66;;;18.80;75.27
63405;BME280;49541;57.840;12.306;2022-08-21T19:36:59;100486.31;;;18.82;74.55
63405;BME280;49541;57.840;12.306;2022-08-21T19:42:00;100491.97;;;18.73;74.76
63405;BME280;49541;57.840;12.306;2022-08-21T19:47:00;100503.78;;;19.23;72.87
63405;BME280;49541;57.840;12.306;2022-08-21T19:52:00;100516.63;;;18.85;73.46
63405;BME280;49541;57.840;12.306;2022-08-21T19:57:01;100514.38;;;17.76;75.44
63405;BME280;49541;57.840;12.306;2022-08-21T20:02:03;100510.97;;;17.59;77.04
63405;BME280;49541;57.840;12.306;2022-08-21T20:07:04;100514.50;;;17.13;77.33
63405;BME280;49541;57.840;12.306;2022-08-21T20:12:06;100521.97;;;17.03;76.87
63405;BME280;49541;57.840;12.306;2022-08-21T20:17:08;100523.06;;;17.40;76.03
63405;BME280;49541;57.840;12.306;2022-08-21T20:22:09;100523.31;;;17.30;75.59
63405;BME280;49541;57.840;12.306;2022-08-21T20:27:12;100532.53;;;17.36;74.92
63405;BME280;49541;57.840;12.306;2022-08-21T20:32:12;100541.78;;;17.10;75.83
63405;BME280;49541;57.840;12.306;2022-08-21T20:37:14;100543.16;;;17.52;73.37
63405;BME280;49541;57.840;12.306;2022-08-21T20:42:14;100543.38;;;17.66;71.05
63405;BME280;49541;57.840;12.306;2022-08-21T20:47:14;100551.25;;;17.52;71.42
63405;BME280;49541;57.840;12.306;2022-08-21T20:52:15;100546.56;;;16.92;73.99
63405;BME280;49541;57.840;12.306;2022-08-21T21:12:41;100551.03;;;16.52;73.46
63405;BME280;49541;57.840;12.306;2022-08-21T21:17:53;100560.06;;;16.11;74.61
63405;BME280;49541;57.840;12.306;2022-08-21T21:23:02;100567.16;;;16.60;73.12
63405;BME280;49541;57.840;12.306;2022-08-21T21:28:07;100576.84;;;16.05;74.65
63405;BME280;49541;57.840;12.306;2022-08-21T21:33:09;100574.31;;;15.95;75.30
63405;BME280;49541;57.840;12.306;2022-08-21T21:38:26;100577.97;;;16.44;73.51
63405;BME280;49541;57.840;12.306;2022-08-21T21:48:53;100587.22;;;16.16;74.10
63405;BME280;49541;57.840;12.306;2022-08-21T22:14:53;100597.81;;;16.10;71.98
63405;BME280;49541;57.840;12.306;2022-08-21T22:19:53;100609.03;;;15.89;71.82
63405;BME280;49541;57.840;12.306;2022-08-21T22:24:58;100611.19;;;15.69;71.80
63405;BME280;49541;57.840;12.306;2022-08-21T22:30:01;100602.56;;;15.32;74.00
63405;BME280;49541;57.840;12.306;2022-08-21T22:40:09;100615.50;;;15.45;71.64
63405;BME280;49541;57.840;12.306;2022-08-21T22:45:10;100622.56;;;15.54;70.78
63405;BME280;49541;57.840;12.306;2022-08-21T22:50:21;100621.75;;;15.11;72.77
63405;BME280;49541;57.840;12.306;2022-08-21T23:00:36;100623.25;;;15.06;73.07
63405;BME280;49541;57.840;12.306;2022-08-21T23:05:37;100619.88;;;14.95;72.58
63405;BME280;49541;57.840;12.306;2022-08-21T23:10:39;100626.34;;;14.85;72.69
63405;BME280;49541;57.840;12.306;2022-08-21T23:25:55;100641.06;;;14.81;71.99
63405;BME280;49541;57.840;12.306;2022-08-21T23:31:04;100641.47;;;14.94;71.92
63405;BME280;49541;57.840;12.306;2022-08-21T23:41:55;100645.31;;;15.34;71.36
